createdAt,value
2022-07-25T00:00:29.394Z,21.40
2022-07-25T00:05:13.800Z,21.20
2022-07-25T00:09:57.488Z,21.10
2022-07-25T00:14:42.669Z,21.30
2022-07-25T00:19:26.249Z,21.30
2022-07-25T00:24:10.485Z,21.20
2022-07-25T00:28:54.172Z,21.30
2022-07-25T00:33:40.382Z,21.10
2022-07-25T00:38:24.052Z,21.00
2022-07-25T00:43:07.614Z,21.00
2022-07-25T00:47:51.128Z,20.90
2022-07-25T00:52:36.070Z,20.80
2022-07-25T00:57:19.691Z,20.70
2022-07-25T01:02:03.786Z,20.70
2022-07-25T01:06:48.410Z,20.80
2022-07-25T01:11:33.308Z,20.80
2022-07-25T01:16:17.007Z,20.80
2022-07-25T01:21:02.276Z,20.70
2022-07-25T01:25:46.030Z,20.60
2022-07-25T01:30:29.488Z,20.50
2022-07-25T01:35:13.727Z,20.50
2022-07-25T01:39:58.768Z,20.80
2022-07-25T01:44:42.249Z,20.80
2022-07-25T01:49:26.954Z,20.70
2022-07-25T01:54:10.639Z,20.60
2022-07-25T01:58:55.545Z,20.60
2022-07-25T02:03:39.003Z,20.70
2022-07-25T02:08:23.411Z,20.70
2022-07-25T02:13:06.918Z,20.90
2022-07-25T02:18:02.001Z,21.10
2022-07-25T02:22:45.495Z,21.20
2022-07-25T02:27:29.040Z,21.10
2022-07-25T02:32:12.491Z,20.90
2022-07-25T02:36:57.362Z,20.80
2022-07-25T02:41:40.928Z,20.80
2022-07-25T02:46:24.578Z,20.80
2022-07-25T02:51:08.498Z,20.80
2022-07-25T02:55:53.344Z,20.80
2022-07-25T03:00:40.252Z,20.70
2022-07-25T03:05:28.050Z,20.70
2022-07-25T03:10:13.536Z,20.60
2022-07-25T03:14:58.379Z,20.40
2022-07-25T03:19:41.871Z,20.10
2022-07-25T03:24:25.330Z,19.90
2022-07-25T03:29:08.845Z,19.90
2022-07-25T03:33:53.749Z,19.80
2022-07-25T03:38:37.230Z,19.80
2022-07-25T03:43:20.809Z,19.80
2022-07-25T03:48:04.390Z,19.70
2022-07-25T03:52:49.314Z,19.70
2022-07-25T03:57:32.854Z,19.70
2022-07-25T04:02:16.388Z,19.50
2022-07-25T04:06:59.909Z,19.50
2022-07-25T04:11:45.050Z,19.60
2022-07-25T04:16:28.543Z,19.60
2022-07-25T04:21:13.183Z,19.50
2022-07-25T04:25:56.849Z,19.60
2022-07-25T04:30:41.846Z,19.60
2022-07-25T04:35:25.356Z,19.90
2022-07-25T04:40:10.840Z,20.00
2022-07-25T04:44:54.589Z,20.10
2022-07-25T04:49:39.600Z,20.50
2022-07-25T04:54:23.114Z,20.90
2022-07-25T04:59:07.241Z,21.10
2022-07-25T05:03:50.940Z,21.20
2022-07-25T05:08:35.840Z,21.30
2022-07-25T05:13:19.356Z,21.60
2022-07-25T05:18:02.980Z,22.00
2022-07-25T05:22:46.672Z,22.50
2022-07-25T05:27:31.763Z,22.90
2022-07-25T05:32:15.287Z,23.30
2022-07-25T05:36:58.784Z,23.70
2022-07-25T05:41:42.372Z,24.00
2022-07-25T05:46:27.246Z,24.30
2022-07-25T05:51:10.959Z,24.60
2022-07-25T05:55:54.439Z,24.90
2022-07-25T06:00:39.427Z,24.90
2022-07-25T06:05:24.518Z,25.00
2022-07-25T06:10:08.205Z,25.00
2022-07-25T06:14:51.670Z,25.30
2022-07-25T06:19:35.728Z,25.40
2022-07-25T06:24:20.614Z,25.80
2022-07-25T06:29:04.118Z,26.10
2022-07-25T06:33:47.592Z,26.20
2022-07-25T06:38:31.128Z,26.60
2022-07-25T06:43:16.005Z,26.60
2022-07-25T06:47:59.557Z,27.20
2022-07-25T06:52:43.962Z,27.80
2022-07-25T06:57:27.495Z,27.70
2022-07-25T07:02:12.914Z,28.00
2022-07-25T07:06:56.349Z,28.40
2022-07-25T07:11:39.983Z,28.30
2022-07-25T07:16:23.607Z,28.20
2022-07-25T07:21:08.900Z,28.40
2022-07-25T07:25:59.813Z,28.30
2022-07-25T07:31:14.734Z,28.60
2022-07-25T07:35:47.138Z,28.70
2022-07-25T07:40:32.123Z,29.20
2022-07-25T07:45:17.608Z,29.50
2022-07-25T07:50:01.106Z,29.10
2022-07-25T07:55:02.236Z,29.70
2022-07-25T07:59:47.153Z,30.20
2022-07-25T08:04:30.719Z,30.50
2022-07-25T08:09:14.271Z,29.30
2022-07-25T08:13:57.862Z,29.40
2022-07-25T08:18:42.786Z,29.50
2022-07-25T08:23:27.974Z,30.10
2022-07-25T08:28:12.701Z,30.40
2022-07-25T08:32:57.788Z,30.40
2022-07-25T08:37:42.721Z,31.10
2022-07-25T08:42:26.218Z,31.80
2022-07-25T08:47:10.828Z,31.80
2022-07-25T08:51:57.183Z,32.20
2022-07-25T08:56:42.111Z,33.10
2022-07-25T09:01:25.709Z,32.90
2022-07-25T09:06:17.616Z,33.10
2022-07-25T09:11:01.243Z,33.30
2022-07-25T09:15:49.654Z,34.10
2022-07-25T09:20:42.051Z,33.50
2022-07-25T09:25:29.994Z,33.10
2022-07-25T09:30:15.352Z,34.50
2022-07-25T09:35:00.238Z,34.80
2022-07-25T09:39:47.088Z,34.40
2022-07-25T09:44:31.782Z,35.20
2022-07-25T09:49:15.450Z,35.10
2022-07-25T09:54:00.978Z,36.30
2022-07-25T09:58:44.442Z,37.60
2022-07-25T10:03:35.890Z,38.50
2022-07-25T10:08:21.824Z,39.50
2022-07-25T10:13:11.380Z,38.90
2022-07-25T10:18:04.981Z,39.00
2022-07-25T10:22:57.333Z,39.60
2022-07-25T10:27:48.870Z,39.30
2022-07-25T10:32:35.888Z,38.90
2022-07-25T10:37:21.339Z,39.70
2022-07-25T10:42:07.459Z,40.00
2022-07-25T10:46:51.042Z,39.60
2022-07-25T10:51:41.548Z,39.80
2022-07-25T10:56:28.539Z,39.10
2022-07-25T11:01:14.378Z,39.30
2022-07-25T11:05:57.964Z,39.50
2022-07-25T11:10:43.050Z,39.90
2022-07-25T11:15:26.666Z,40.10
2022-07-25T11:20:13.027Z,40.20
2022-07-25T11:24:58.216Z,40.20
2022-07-25T11:29:43.214Z,40.70
2022-07-25T11:34:29.508Z,40.60
2022-07-25T11:39:17.014Z,40.90
2022-07-25T11:44:03.174Z,40.60
2022-07-25T11:48:48.822Z,40.90
2022-07-25T11:53:42.161Z,41.90
2022-07-25T11:58:26.126Z,42.00
2022-07-25T12:03:14.131Z,42.10
2022-07-25T12:08:13.305Z,42.30
2022-07-25T12:12:57.833Z,42.30
2022-07-25T12:17:41.544Z,42.50
2022-07-25T12:22:26.926Z,42.70
2022-07-25T12:27:12.203Z,43.50
2022-07-25T12:31:55.739Z,43.70
2022-07-25T12:36:44.292Z,43.90
2022-07-25T12:41:28.071Z,44.40
2022-07-25T12:46:13.157Z,45.20
2022-07-25T12:50:56.852Z,45.50
2022-07-25T12:55:40.541Z,44.40
2022-07-25T13:00:25.283Z,44.60
2022-07-25T13:05:10.895Z,44.70
2022-07-25T13:09:54.606Z,44.80
2022-07-25T13:14:38.802Z,45.60
2022-07-25T13:19:22.413Z,43.50
2022-07-25T13:24:08.553Z,44.40
2022-07-25T13:28:57.907Z,45.40
2022-07-25T13:33:43.320Z,45.30
2022-07-25T13:38:27.120Z,45.80
2022-07-25T13:43:14.566Z,46.30
2022-07-25T13:48:19.044Z,45.80
2022-07-25T13:53:04.171Z,46.30
2022-07-25T13:57:47.835Z,48.40
2022-07-25T14:02:35.680Z,47.50
2022-07-25T14:07:19.273Z,45.70
2022-07-25T14:12:02.920Z,47.00
2022-07-25T14:16:46.633Z,44.70
2022-07-25T14:21:52.581Z,41.70
2022-07-25T14:26:36.643Z,43.50
2022-07-25T14:31:21.457Z,42.70
2022-07-25T14:36:05.374Z,40.60
2022-07-25T14:40:53.546Z,40.50
2022-07-25T14:45:37.731Z,42.50
2022-07-25T14:50:21.603Z,42.60
2022-07-25T14:55:06.196Z,43.40
2022-07-25T14:59:51.177Z,44.80
2022-07-25T15:04:35.088Z,44.80
2022-07-25T15:09:18.734Z,44.00
2022-07-25T15:14:02.228Z,44.00
2022-07-25T15:19:14.432Z,44.10
2022-07-25T15:23:52.357Z,44.60
2022-07-25T15:28:38.720Z,42.80
2022-07-25T15:33:22.352Z,42.70
2022-07-25T15:38:07.240Z,41.50
2022-07-25T15:42:51.642Z,41.90
2022-07-25T15:47:35.128Z,40.70
2022-07-25T15:52:18.906Z,41.50
2022-07-25T15:57:04.019Z,41.10
2022-07-25T16:01:47.675Z,41.20
2022-07-25T16:06:31.194Z,41.20
2022-07-25T16:11:14.809Z,40.20
2022-07-25T16:15:59.801Z,38.40
2022-07-25T16:20:43.359Z,37.20
2022-07-25T16:25:28.590Z,36.00
2022-07-25T16:30:13.125Z,35.40
2022-07-25T16:34:58.240Z,34.90
2022-07-25T16:39:41.942Z,34.60
2022-07-25T16:44:25.509Z,34.10
2022-07-25T16:49:09.428Z,33.50
2022-07-25T16:53:54.561Z,33.10
2022-07-25T16:58:38.167Z,32.80
2022-07-25T17:03:21.974Z,32.40
2022-07-25T17:08:05.903Z,32.10
2022-07-25T17:12:51.073Z,32.10
2022-07-25T17:17:35.678Z,31.80
2022-07-25T17:22:20.447Z,31.60
2022-07-25T17:27:04.645Z,31.40
2022-07-25T17:31:49.406Z,31.40
2022-07-25T17:36:33.045Z,31.10
2022-07-25T17:41:16.575Z,31.20
2022-07-25T17:46:00.399Z,31.10
2022-07-25T17:50:45.854Z,31.40
2022-07-25T17:55:29.746Z,31.50
2022-07-25T18:00:15.905Z,31.30
2022-07-25T18:04:59.636Z,31.50
2022-07-25T18:09:44.937Z,31.70
2022-07-25T18:14:29.419Z,31.40
2022-07-25T18:19:13.116Z,30.90
2022-07-25T18:23:56.872Z,30.20
2022-07-25T18:28:42.150Z,29.50
2022-07-25T18:33:25.906Z,29.10
2022-07-25T18:38:11.708Z,28.50
2022-07-25T18:42:55.686Z,28.00
2022-07-25T18:47:41.641Z,27.70
2022-07-25T18:52:25.689Z,27.60
2022-07-25T18:57:09.469Z,27.60
2022-07-25T19:01:53.136Z,27.40
2022-07-25T19:06:38.431Z,27.20
2022-07-25T19:11:22.091Z,26.80
2022-07-25T19:16:06.085Z,24.90
2022-07-25T19:20:51.118Z,22.20
2022-07-25T19:25:37.347Z,21.30
2022-07-25T19:30:21.749Z,21.00
2022-07-25T19:35:06.777Z,21.10
2022-07-25T19:39:51.671Z,21.10
2022-07-25T19:44:36.976Z,21.20
2022-07-25T19:49:20.994Z,21.30
2022-07-25T19:54:05.752Z,21.50
2022-07-25T19:58:49.611Z,21.50
2022-07-25T20:03:34.574Z,21.30
2022-07-25T20:08:19.294Z,21.30
2022-07-25T20:13:02.855Z,21.00
2022-07-25T20:17:46.486Z,20.90
2022-07-25T20:22:31.743Z,20.80
2022-07-25T20:27:15.302Z,20.60
2022-07-25T20:31:59.233Z,20.60
2022-07-25T20:36:42.957Z,20.80
2022-07-25T20:41:28.087Z,20.60
2022-07-25T20:46:12.641Z,21.00
2022-07-25T20:50:56.361Z,21.10
2022-07-25T20:55:40.246Z,20.80
2022-07-25T21:00:27.766Z,20.70
2022-07-25T21:05:11.821Z,20.70
2022-07-25T21:09:59.947Z,20.60
2022-07-25T21:15:03.234Z,20.70
2022-07-25T21:20:14.761Z,20.60
2022-07-25T21:24:58.874Z,20.40
2022-07-25T21:29:43.035Z,20.30
2022-07-25T21:34:27.172Z,20.40
2022-07-25T21:39:13.481Z,20.30
2022-07-25T21:43:58.474Z,20.30
2022-07-25T21:48:59.556Z,20.30
2022-07-25T21:53:43.437Z,20.30
2022-07-25T21:58:28.771Z,20.30
2022-07-25T22:03:12.483Z,20.30
2022-07-25T22:07:56.052Z,20.30
2022-07-25T22:12:39.865Z,20.30
2022-07-25T22:17:24.832Z,20.40
2022-07-25T22:22:08.534Z,20.30
2022-07-25T22:26:52.034Z,20.30
2022-07-25T22:31:35.625Z,20.20
2022-07-25T22:36:20.627Z,20.20
2022-07-25T22:41:04.175Z,20.30
2022-07-25T22:45:48.181Z,20.20
2022-07-25T22:50:31.893Z,20.20
2022-07-25T22:55:17.033Z,20.20
2022-07-25T23:00:00.688Z,20.10
2022-07-25T23:04:44.214Z,20.10
2022-07-25T23:09:36.057Z,20.20
2022-07-25T23:14:21.473Z,20.20
2022-07-25T23:19:05.218Z,20.10
2022-07-25T23:23:48.925Z,20.00
2022-07-25T23:28:32.511Z,20.00
2022-07-25T23:33:17.411Z,20.00
2022-07-25T23:38:08.697Z,20.10
2022-07-25T23:42:52.893Z,20.10
2022-07-25T23:47:36.849Z,20.00
2022-07-25T23:52:24.764Z,20.00
2022-07-25T23:57:08.822Z,20.10
